Time;durP1;ratioP1;P1;durP2;ratioP2;P2;SDS_P1;SDS_P2;PMS_P1;PMS_P2;Temp;Humidity;BMP_temperature;BMP_pressure;BME280_temperature;BME280_humidity;BME280_pressure;Samples;Min_cycle;Max_cycle;Signal;HPM_P1;HPM_P2
2023/08/09 00:00:07;;;;;;;0.60;0.50;;;21.80;58.60;;;;;;6250058;28;20036;-68
2023/08/09 00:03:08;;;;;;;1.10;0.68;;;21.80;58.70;;;;;;6266915;28;20025;-68
2023/08/09 00:06:09;;;;;;;0.63;0.50;;;21.80;58.70;;;;;;6268094;28;20045;-68
2023/08/09 00:09:10;;;;;;;0.50;0.40;;;21.80;58.70;;;;;;6267757;28;20112;-67
2023/08/09 00:12:11;;;;;;;0.60;0.47;;;21.80;58.70;;;;;;6267896;28;20025;-68
2023/08/09 00:15:12;;;;;;;0.85;0.55;;;21.80;58.60;;;;;;6267707;28;20032;-68
2023/08/09 00:18:13;;;;;;;0.88;0.60;;;21.80;58.70;;;;;;6271780;28;20126;-68
2023/08/09 00:21:14;;;;;;;0.60;0.40;;;21.80;58.70;;;;;;6272231;28;20112;-68
2023/08/09 00:24:16;;;;;;;0.80;0.50;;;21.80;58.70;;;;;;6247402;28;20056;-68
2023/08/09 00:27:17;;;;;;;0.30;0.30;;;21.80;58.70;;;;;;6236783;28;20375;-69
2023/08/09 00:30:18;;;;;;;0.40;0.40;;;21.80;58.70;;;;;;6271944;28;20091;-67
2023/08/09 00:33:19;;;;;;;0.80;0.50;;;21.80;58.70;;;;;;6271768;28;20029;-67
2023/08/09 00:36:19;;;;;;;0.32;0.32;;;21.80;58.70;;;;;;6271963;28;20059;-67
2023/08/09 00:39:20;;;;;;;1.15;0.45;;;21.80;58.70;;;;;;6253731;28;20166;-68
2023/08/09 00:42:21;;;;;;;0.82;0.50;;;21.80;58.70;;;;;;6271939;28;20040;-68
2023/08/09 00:45:22;;;;;;;0.90;0.55;;;21.80;58.70;;;;;;6271528;28;20029;-67
2023/08/09 00:48:23;;;;;;;0.50;0.40;;;21.80;58.70;;;;;;6271472;28;20116;-68
2023/08/09 00:51:23;;;;;;;0.43;0.40;;;21.80;58.70;;;;;;6271408;28;20040;-68
2023/08/09 00:54:24;;;;;;;0.75;0.50;;;21.80;58.70;;;;;;6271599;28;20371;-68
2023/08/09 00:57:25;;;;;;;0.65;0.47;;;21.80;58.70;;;;;;6271056;28;20029;-68
2023/08/09 01:00:26;;;;;;;0.82;0.40;;;21.80;58.70;;;;;;6271364;28;20490;-67
2023/08/09 01:03:26;;;;;;;0.75;0.60;;;21.80;58.70;;;;;;6270880;28;20100;-68
2023/08/09 01:06:45;;;;;;;0.90;0.50;;;21.80;58.70;;;;;;6271155;28;20036;-68
2023/08/09 01:10:07;;;;;;;0.40;0.40;;;21.80;58.70;;;;;;6271275;28;20051;-69
2023/08/09 01:13:10;;;;;;;0.40;0.40;;;21.80;58.70;;;;;;6244803;28;20045;-68
2023/08/09 01:16:11;;;;;;;0.38;0.38;;;21.80;58.70;;;;;;6246203;28;20575;-68
2023/08/09 01:19:22;;;;;;;0.80;0.60;;;21.80;58.70;;;;;;6262663;28;20033;-68
2023/08/09 01:22:29;;;;;;;1.02;0.40;;;21.80;58.70;;;;;;6270494;28;20044;-68
2023/08/09 01:25:31;;;;;;;0.77;0.55;;;21.80;58.70;;;;;;6270688;28;20025;-68
2023/08/09 01:28:32;;;;;;;0.70;0.50;;;21.80;58.70;;;;;;6269638;28;20713;-68
2023/08/09 01:31:33;;;;;;;0.40;0.40;;;21.80;58.70;;;;;;6270707;28;20044;-67
2023/08/09 01:34:36;;;;;;;0.47;0.40;;;21.80;58.70;;;;;;6252716;28;20036;-68
2023/08/09 01:38:09;;;;;;;0.60;0.43;;;21.80;58.70;;;;;;6270621;28;20031;-68
2023/08/09 01:41:10;;;;;;;0.52;0.50;;;21.80;58.70;;;;;;6270431;28;20032;-68
2023/08/09 01:44:12;;;;;;;1.15;0.60;;;21.80;58.70;;;;;;6269995;28;20091;-67
2023/08/09 01:47:14;;;;;;;0.80;0.50;;;21.80;58.70;;;;;;6270214;28;20041;-67
2023/08/09 01:50:20;;;;;;;0.30;0.30;;;21.80;58.70;;;;;;6269906;28;20033;-67
2023/08/09 01:53:20;;;;;;;0.50;0.47;;;21.80;58.70;;;;;;6270221;28;20037;-68
2023/08/09 01:56:21;;;;;;;0.60;0.50;;;21.80;58.70;;;;;;6251922;28;20098;-67
2023/08/09 01:59:23;;;;;;;0.93;0.63;;;21.80;58.70;;;;;;6251913;28;20128;-67
2023/08/09 02:02:23;;;;;;;0.60;0.55;;;21.80;58.70;;;;;;6269603;28;20516;-68
2023/08/09 02:05:24;;;;;;;0.40;0.40;;;21.80;58.70;;;;;;6269761;28;20041;-68
2023/08/09 02:08:25;;;;;;;0.70;0.40;;;21.80;58.70;;;;;;6269547;28;20100;-68
2023/08/09 02:11:26;;;;;;;0.47;0.40;;;21.80;58.70;;;;;;6269280;28;20033;-68
2023/08/09 02:14:27;;;;;;;0.65;0.52;;;21.80;58.70;;;;;;6252019;28;20029;-69
2023/08/09 02:17:28;;;;;;;0.30;0.30;;;21.80;58.70;;;;;;6269416;28;20025;-68
2023/08/09 02:20:29;;;;;;;0.40;0.40;;;21.80;58.70;;;;;;6269478;28;20044;-67
2023/08/09 02:23:29;;;;;;;0.60;0.43;;;21.80;58.70;;;;;;6269303;28;20033;-69
2023/08/09 02:26:30;;;;;;;0.75;0.50;;;21.80;58.80;;;;;;6251436;28;20040;-67
2023/08/09 02:29:31;;;;;;;0.73;0.40;;;21.80;58.70;;;;;;6269190;28;20500;-68
2023/08/09 02:32:33;;;;;;;1.33;0.50;;;21.80;58.70;;;;;;6268810;28;20032;-69
2023/08/09 02:35:51;;;;;;;0.65;0.40;;;21.80;58.70;;;;;;6269248;28;20032;-69
2023/08/09 02:38:52;;;;;;;0.45;0.32;;;21.80;58.80;;;;;;6268884;28;20083;-68
2023/08/09 02:41:52;;;;;;;0.60;0.50;;;21.80;58.80;;;;;;6268816;28;20045;-67
2023/08/09 02:44:54;;;;;;;0.70;0.35;;;21.70;58.70;;;;;;6268719;28;20048;-68
2023/08/09 02:47:55;;;;;;;0.50;0.32;;;21.80;58.80;;;;;;6250829;28;20044;-68
2023/08/09 02:50:56;;;;;;;0.40;0.30;;;21.80;58.80;;;;;;6268700;28;20037;-67
2023/08/09 02:54:02;;;;;;;0.77;0.40;;;21.70;58.70;;;;;;6268467;28;20037;-69
2023/08/09 02:57:03;;;;;;;0.63;0.47;;;21.70;58.70;;;;;;6268873;28;20028;-69
2023/08/09 03:00:06;;;;;;;0.70;0.40;;;21.70;58.70;;;;;;6250650;28;20118;-70
2023/08/09 03:03:07;;;;;;;0.40;0.30;;;21.70;58.70;;;;;;6268623;28;20494;-68
2023/08/09 03:06:08;;;;;;;0.47;0.30;;;21.80;58.80;;;;;;6250738;28;20094;-67
2023/08/09 03:09:09;;;;;;;1.65;0.63;;;21.80;58.70;;;;;;6268297;28;20060;-68
2023/08/09 03:12:11;;;;;;;0.40;0.40;;;21.70;58.70;;;;;;6268375;28;20387;-67
2023/08/09 03:15:12;;;;;;;0.73;0.43;;;21.70;58.70;;;;;;6268289;28;20029;-67
2023/08/09 03:18:13;;;;;;;0.43;0.30;;;21.80;58.80;;;;;;6250523;28;20617;-67
2023/08/09 03:21:14;;;;;;;0.20;0.20;;;21.70;58.70;;;;;;6268264;28;20030;-68
2023/08/09 03:24:15;;;;;;;1.02;0.40;;;21.70;58.70;;;;;;6268174;28;20033;-68
2023/08/09 03:27:16;;;;;;;0.55;0.43;;;21.70;58.70;;;;;;6268410;28;20040;-68
2023/08/09 03:30:17;;;;;;;0.40;0.40;;;21.70;58.70;;;;;;6268413;28;20032;-70
2023/08/09 03:33:18;;;;;;;0.57;0.43;;;21.70;58.70;;;;;;6267972;28;20033;-69
2023/08/09 03:36:20;;;;;;;0.40;0.40;;;21.70;58.70;;;;;;6268029;28;20027;-68
2023/08/09 03:39:21;;;;;;;0.50;0.50;;;21.70;58.70;;;;;;6250343;28;20025;-68
2023/08/09 03:42:22;;;;;;;0.57;0.40;;;21.70;58.70;;;;;;6268531;28;20029;-68
2023/08/09 03:45:23;;;;;;;0.70;0.50;;;21.70;58.70;;;;;;6268242;28;20041;-71
2023/08/09 03:48:24;;;;;;;0.30;0.30;;;21.70;58.70;;;;;;6251411;28;20087;-70
2023/08/09 03:51:26;;;;;;;0.80;0.50;;;21.70;58.80;;;;;;6270140;28;20072;-69
2023/08/09 03:54:28;;;;;;;0.40;0.40;;;21.70;58.80;;;;;;6273888;28;20033;-70
2023/08/09 03:57:29;;;;;;;0.32;0.32;;;21.70;58.70;;;;;;6273406;28;20029;-70
2023/08/09 04:00:42;;;;;;;0.40;0.40;;;21.70;58.80;;;;;;6273771;28;20025;-70
2023/08/09 04:03:43;;;;;;;0.63;0.50;;;21.70;58.70;;;;;;6255420;28;20048;-69
2023/08/09 04:06:44;;;;;;;0.30;0.30;;;21.70;58.70;;;;;;6255497;28;20157;-69
2023/08/09 04:09:44;;;;;;;0.70;0.60;;;21.70;58.80;;;;;;6273553;28;20029;-69
2023/08/09 04:12:45;;;;;;;0.55;0.38;;;21.70;58.80;;;;;;6272983;28;20028;-69
2023/08/09 04:15:46;;;;;;;0.73;0.50;;;21.70;58.80;;;;;;6273221;28;20044;-70
2023/08/09 04:18:47;;;;;;;1.15;0.60;;;21.70;58.80;;;;;;6273112;28;20021;-67
2023/08/09 04:21:48;;;;;;;0.40;0.40;;;21.70;58.80;;;;;;6273171;28;20029;-71
2023/08/09 04:24:50;;;;;;;0.98;0.45;;;21.70;58.70;;;;;;6254864;28;20402;-69
2023/08/09 04:27:53;;;;;;;0.60;0.45;;;21.70;58.80;;;;;;6272908;28;20422;-70
2023/08/09 04:30:53;;;;;;;0.75;0.50;;;21.70;58.80;;;;;;6272927;28;20029;-69
2023/08/09 04:33:54;;;;;;;0.80;0.50;;;21.70;58.80;;;;;;6237933;28;20056;-70
2023/08/09 04:36:55;;;;;;;0.70;0.50;;;21.70;58.80;;;;;;6258676;28;20534;-70
2023/08/09 04:39:55;;;;;;;1.13;0.70;;;21.70;58.60;;;;;;6271186;28;20036;-70
2023/08/09 04:42:57;;;;;;;1.55;0.50;;;21.70;58.40;;;;;;6271013;28;20478;-69
2023/08/09 04:45:58;;;;;;;0.73;0.68;;;21.70;58.40;;;;;;6253116;28;20036;-70
2023/08/09 04:48:59;;;;;;;0.50;0.50;;;21.70;57.50;;;;;;6270548;28;20394;-70
2023/08/09 04:52:00;;;;;;;0.98;0.50;;;21.70;58.20;;;;;;6271048;28;20037;-70
2023/08/09 04:55:02;;;;;;;1.95;0.50;;;21.70;58.40;;;;;;6270747;28;20032;-70
2023/08/09 04:58:03;;;;;;;0.60;0.40;;;21.70;58.70;;;;;;6271107;28;20632;-70
2023/08/09 05:01:04;;;;;;;1.17;0.70;;;21.70;58.20;;;;;;6252049;28;20040;-69
2023/08/09 05:04:05;;;;;;;0.85;0.40;;;21.70;58.50;;;;;;6269221;28;20780;-70
2023/08/09 05:07:05;;;;;;;1.30;0.70;;;21.70;58.50;;;;;;6270976;28;20090;-70
2023/08/09 05:10:09;;;;;;;1.92;0.70;;;21.70;57.90;;;;;;6271758;28;20029;-70
2023/08/09 05:13:10;;;;;;;2.45;1.45;;;21.70;58.20;;;;;;6252944;28;20056;-71
2023/08/09 05:16:11;;;;;;;0.52;0.50;;;21.70;56.80;;;;;;6270980;28;20036;-71
2023/08/09 05:19:12;;;;;;;2.03;0.90;;;21.70;57.90;;;;;;6271253;28;20025;-70
2023/08/09 05:22:14;;;;;;;1.95;0.70;;;21.70;58.20;;;;;;6271347;28;20112;-71
2023/08/09 05:25:16;;;;;;;3.63;0.82;;;21.70;58.20;;;;;;6270836;28;20037;-70
2023/08/09 05:28:17;;;;;;;1.05;0.52;;;21.70;58.20;;;;;;6271189;28;20064;-70
2023/08/09 05:31:17;;;;;;;0.80;0.70;;;21.70;58.20;;;;;;6271242;28;20037;-70
2023/08/09 05:34:18;;;;;;;1.48;0.50;;;21.70;58.30;;;;;;6270920;28;20029;-70
2023/08/09 05:37:19;;;;;;;2.83;0.75;;;21.70;58.30;;;;;;6270489;28;20428;-70
2023/08/09 05:40:20;;;;;;;1.42;0.70;;;21.70;58.30;;;;;;6270706;28;20040;-69
2023/08/09 05:43:20;;;;;;;0.95;0.80;;;21.70;58.30;;;;;;6270785;28;20390;-70
2023/08/09 05:46:21;;;;;;;0.82;0.70;;;21.70;58.40;;;;;;6252605;28;20075;-70
2023/08/09 05:49:22;;;;;;;1.38;0.65;;;21.70;58.40;;;;;;6270728;28;20033;-70
2023/08/09 05:52:23;;;;;;;1.05;0.70;;;21.70;58.50;;;;;;6270702;28;20140;-71
2023/08/09 05:55:23;;;;;;;1.45;0.65;;;21.70;58.40;;;;;;6270217;28;20033;-71
2023/08/09 05:58:25;;;;;;;1.05;0.70;;;21.70;59.10;;;;;;6270079;28;20700;-70
2023/08/09 06:01:26;;;;;;;1.10;0.70;;;21.70;58.40;;;;;;6254372;28;20043;-70
2023/08/09 06:04:27;;;;;;;1.40;0.70;;;21.70;58.40;;;;;;6271950;28;20486;-70
2023/08/09 06:07:30;;;;;;;0.90;0.50;;;21.70;58.50;;;;;;6254042;28;20397;-71
2023/08/09 06:10:30;;;;;;;1.35;0.85;;;21.70;58.40;;;;;;6271734;28;20033;-70
2023/08/09 06:13:31;;;;;;;2.53;0.80;;;21.70;58.40;;;;;;6271168;28;20033;-71
2023/08/09 06:16:34;;;;;;;4.43;1.20;;;21.70;58.40;;;;;;6271493;28;20116;-72
2023/08/09 06:19:35;;;;;;;2.50;1.13;;;21.70;58.40;;;;;;6271685;28;20029;-71
2023/08/09 06:22:35;;;;;;;3.38;1.17;;;21.70;58.40;;;;;;6253589;28;20028;-71
2023/08/09 06:25:37;;;;;;;1.95;0.90;;;21.70;58.40;;;;;;6253525;28;20037;-71
2023/08/09 06:28:38;;;;;;;2.42;0.90;;;21.70;58.40;;;;;;6270386;28;20119;-69
2023/08/09 06:31:39;;;;;;;1.60;0.93;;;21.70;58.50;;;;;;6252018;28;20497;-70
2023/08/09 06:34:40;;;;;;;2.63;1.20;;;21.70;58.50;;;;;;6270051;28;20112;-70
2023/08/09 06:37:40;;;;;;;2.33;1.25;;;21.70;58.50;;;;;;6245752;28;20041;-70
2023/08/09 06:40:42;;;;;;;3.10;1.23;;;21.70;58.50;;;;;;6269659;28;20056;-69
2023/08/09 06:43:43;;;;;;;2.75;1.00;;;21.70;58.50;;;;;;6252244;28;20120;-69
2023/08/09 06:46:44;;;;;;;2.30;1.10;;;21.70;58.50;;;;;;6269460;28;20028;-69
2023/08/09 06:49:45;;;;;;;2.15;1.05;;;21.70;58.50;;;;;;6264326;28;20029;-69
2023/08/09 06:52:46;;;;;;;2.13;1.10;;;21.70;58.60;;;;;;6266205;28;20068;-69
2023/08/09 06:55:47;;;;;;;3.38;1.40;;;21.70;58.50;;;;;;6269286;28;20053;-69
2023/08/09 06:58:47;;;;;;;1.30;0.90;;;21.70;58.60;;;;;;6251307;28;20040;-69
2023/08/09 07:01:48;;;;;;;1.63;1.02;;;21.70;58.60;;;;;;6261403;28;20029;-70
2023/08/09 07:04:53;;;;;;;2.17;1.17;;;21.70;58.60;;;;;;6269546;28;20059;-70
2023/08/09 07:07:54;;;;;;;2.28;0.80;;;21.70;58.60;;;;;;6251572;28;20056;-70
2023/08/09 07:10:55;;;;;;;1.67;0.93;;;21.70;58.60;;;;;;6269389;28;20029;-70
2023/08/09 07:13:56;;;;;;;3.35;0.90;;;21.70;58.60;;;;;;6262287;28;20556;-70
2023/08/09 07:16:57;;;;;;;1.85;1.17;;;21.70;58.70;;;;;;6269391;28;20389;-70
2023/08/09 07:19:58;;;;;;;1.60;1.10;;;21.70;58.60;;;;;;6251793;28;20033;-70
2023/08/09 07:22:58;;;;;;;1.52;0.80;;;21.70;58.70;;;;;;6269707;28;20160;-69
2023/08/09 07:25:59;;;;;;;1.73;1.00;;;21.70;58.70;;;;;;6252649;28;20036;-70
2023/08/09 07:29:00;;;;;;;1.92;0.85;;;21.70;58.70;;;;;;6274560;28;20033;-70
2023/08/09 07:32:01;;;;;;;2.17;1.00;;;21.70;58.70;;;;;;6256328;28;20482;-69
2023/08/09 07:35:03;;;;;;;1.10;0.77;;;21.70;58.70;;;;;;6274729;28;20044;-70
2023/08/09 07:38:04;;;;;;;1.85;0.93;;;21.70;58.70;;;;;;6273741;28;20032;-71
2023/08/09 07:41:05;;;;;;;1.10;0.85;;;21.70;58.70;;;;;;6274215;28;20386;-72
2023/08/09 07:44:06;;;;;;;2.10;1.05;;;21.70;58.70;;;;;;6274348;28;20051;-71
2023/08/09 07:47:06;;;;;;;2.55;1.13;;;21.70;59.30;;;;;;6273616;28;20033;-71
2023/08/09 07:50:08;;;;;;;3.35;1.17;;;21.70;58.50;;;;;;6274419;28;20116;-70
2023/08/09 07:53:09;;;;;;;5.07;1.10;;;21.70;58.20;;;;;;6238265;28;20030;-70
2023/08/09 07:56:11;;;;;;;3.83;0.90;;;21.70;57.40;;;;;;6231729;28;20037;-70
2023/08/09 07:59:12;;;;;;;1.83;0.90;;;21.70;57.80;;;;;;6267453;28;20028;-69
2023/08/09 08:02:12;;;;;;;3.38;0.80;;;21.70;58.20;;;;;;6273364;28;20064;-69
2023/08/09 08:05:13;;;;;;;1.45;0.85;;;21.70;58.30;;;;;;6273945;28;20060;-69
2023/08/09 08:08:14;;;;;;;1.80;0.80;;;21.70;58.40;;;;;;6273326;28;20032;-69
2023/08/09 08:11:15;;;;;;;1.58;0.60;;;21.70;58.60;;;;;;6273904;28;20040;-69
2023/08/09 08:14:16;;;;;;;2.00;0.93;;;21.70;58.50;;;;;;6250919;28;20597;-69
2023/08/09 08:17:17;;;;;;;2.03;1.00;;;21.70;58.60;;;;;;6269556;28;20037;-69
2023/08/09 08:20:19;;;;;;;1.67;0.90;;;21.70;58.60;;;;;;6273359;28;20442;-70
2023/08/09 08:23:20;;;;;;;1.17;0.75;;;21.70;58.40;;;;;;6258917;28;20508;-69
2023/08/09 08:26:21;;;;;;;1.00;0.70;;;21.70;58.40;;;;;;6273146;28;20037;-69
2023/08/09 08:29:23;;;;;;;1.10;0.65;;;21.80;58.60;;;;;;6254529;28;20064;-69
2023/08/09 08:32:23;;;;;;;2.58;0.93;;;21.80;58.50;;;;;;6255095;28;20065;-69
2023/08/09 08:35:24;;;;;;;1.45;0.73;;;21.80;58.70;;;;;;6272852;28;20401;-69
2023/08/09 08:38:26;;;;;;;1.73;0.70;;;21.80;58.70;;;;;;6272425;28;20490;-70
2023/08/09 08:41:27;;;;;;;1.13;0.70;;;21.80;58.70;;;;;;6272849;28;20482;-70
2023/08/09 08:44:28;;;;;;;3.95;0.75;;;21.80;58.80;;;;;;6272825;28;20112;-70
2023/08/09 08:47:29;;;;;;;3.33;1.10;;;21.80;58.80;;;;;;6272656;28;20025;-70
2023/08/09 08:50:31;;;;;;;1.40;0.70;;;21.80;58.80;;;;;;6272827;28;20067;-70
2023/08/09 08:53:32;;;;;;;1.38;0.70;;;21.80;58.70;;;;;;6272346;28;20087;-70
2023/08/09 08:56:33;;;;;;;1.23;0.70;;;21.80;58.70;;;;;;6272568;28;20029;-69
2023/08/09 08:59:34;;;;;;;1.02;0.68;;;21.70;58.70;;;;;;6254710;28;20037;-70
2023/08/09 09:02:36;;;;;;;5.85;0.93;;;21.70;58.70;;;;;;6272630;28;20037;-70
2023/08/09 09:05:36;;;;;;;1.40;0.70;;;21.70;58.70;;;;;;6254361;28;20132;-69
2023/08/09 09:08:44;;;;;;;2.03;0.88;;;21.70;58.60;;;;;;6272166;28;20033;-70
2023/08/09 09:11:45;;;;;;;1.20;0.65;;;21.70;58.70;;;;;;6247134;28;20088;-70
2023/08/09 09:14:49;;;;;;;0.70;0.60;;;21.70;58.70;;;;;;6271972;28;20498;-69
2023/08/09 09:17:51;;;;;;;1.48;0.70;;;21.70;58.70;;;;;;6254069;28;20501;-70
2023/08/09 09:20:53;;;;;;;2.00;0.70;;;21.80;58.80;;;;;;6272331;28;20028;-70
2023/08/09 09:23:54;;;;;;;2.00;0.73;;;21.70;58.70;;;;;;6271875;28;20115;-70
2023/08/09 09:26:55;;;;;;;1.17;0.70;;;21.70;58.70;;;;;;6254069;28;20045;-70
2023/08/09 09:30:24;;;;;;;2.55;0.80;;;21.70;58.70;;;;;;6253703;28;20178;-70
2023/08/09 09:33:35;;;;;;;0.73;0.50;;;21.70;58.70;;;;;;6271325;28;20029;-69
2023/08/09 09:36:40;;;;;;;1.48;0.70;;;21.70;58.80;;;;;;6254086;28;20040;-70
2023/08/09 09:39:43;;;;;;;1.25;0.70;;;21.70;58.80;;;;;;6271217;28;20043;-71
2023/08/09 09:42:43;;;;;;;1.73;0.70;;;21.70;58.80;;;;;;6271754;28;20025;-70
2023/08/09 09:45:44;;;;;;;1.02;0.70;;;21.70;58.80;;;;;;6267727;28;20563;-69
2023/08/09 09:48:57;;;;;;;1.45;0.70;;;21.70;58.70;;;;;;6270150;28;20032;-69
2023/08/09 09:51:58;;;;;;;1.27;0.70;;;21.70;58.80;;;;;;6236792;28;20564;-70
2023/08/09 09:55:00;;;;;;;1.13;0.60;;;21.80;59.00;;;;;;6251834;28;20035;-69
2023/08/09 09:58:01;;;;;;;2.15;0.50;;;21.80;59.20;;;;;;6270574;28;20037;-69
2023/08/09 10:01:03;;;;;;;0.95;0.60;;;21.80;59.10;;;;;;6269450;28;20563;-69
2023/08/09 10:04:06;;;;;;;2.67;0.70;;;21.80;59.00;;;;;;6270310;28;20059;-69
2023/08/09 10:07:07;;;;;;;1.38;0.73;;;21.80;59.20;;;;;;6270329;28;20029;-69
2023/08/09 10:10:09;;;;;;;0.80;0.60;;;21.80;59.00;;;;;;6265918;28;20390;-70
2023/08/09 10:13:14;;;;;;;0.60;0.50;;;21.80;59.20;;;;;;6245511;28;20060;-70
2023/08/09 10:16:17;;;;;;;1.60;0.90;;;21.80;59.20;;;;;;6259240;28;20035;-70
2023/08/09 10:19:22;;;;;;;0.88;0.57;;;21.80;59.20;;;;;;6270128;28;20100;-70
2023/08/09 10:22:22;;;;;;;0.60;0.50;;;21.80;59.20;;;;;;6269568;28;20512;-70
2023/08/09 10:25:46;;;;;;;1.23;0.70;;;21.80;59.20;;;;;;6269275;28;20103;-69
2023/08/09 10:28:48;;;;;;;1.48;0.60;;;21.80;59.20;;;;;;6269791;28;20036;-70
2023/08/09 10:31:48;;;;;;;0.93;0.60;;;21.80;59.20;;;;;;6251654;28;20044;-70
2023/08/09 10:34:50;;;;;;;0.63;0.60;;;21.80;59.20;;;;;;6269886;28;20021;-69
2023/08/09 10:37:51;;;;;;;1.10;0.70;;;21.70;59.10;;;;;;6269362;28;20033;-70
2023/08/09 10:40:53;;;;;;;0.85;0.60;;;21.70;59.10;;;;;;6250641;28;20551;-69
2023/08/09 10:44:04;;;;;;;4.68;0.47;;;21.70;59.10;;;;;;6268453;28;20279;-68
2023/08/09 10:47:10;;;;;;;2.72;0.63;;;21.70;59.10;;;;;;6269046;28;20550;-68
2023/08/09 10:50:15;;;;;;;4.45;1.10;;;21.70;59.10;;;;;;6268905;28;20033;-73
2023/08/09 10:53:21;;;;;;;1.02;0.60;;;21.70;59.10;;;;;;6262705;28;20026;-67
2023/08/09 10:56:41;;;;;;;1.20;0.70;;;21.70;59.20;;;;;;6251610;28;20017;-68
2023/08/09 10:59:46;;;;;;;1.92;0.65;;;21.70;59.20;;;;;;6269340;28;20079;-69
2023/08/09 11:02:58;;;;;;;1.55;0.98;;;21.70;59.20;;;;;;6268923;28;20116;-69
2023/08/09 11:05:59;;;;;;;1.30;0.73;;;21.70;59.10;;;;;;6268871;28;20139;-69
2023/08/09 11:09:17;;;;;;;2.22;0.80;;;21.70;59.10;;;;;;6269211;28;20041;-69
2023/08/09 11:12:18;;;;;;;1.13;0.63;;;21.70;59.00;;;;;;6267822;28;20033;-69
2023/08/09 11:15:18;;;;;;;0.90;0.70;;;21.70;59.00;;;;;;6269102;28;20048;-69
2023/08/09 11:18:19;;;;;;;0.93;0.60;;;21.70;59.00;;;;;;6251302;28;20029;-69
2023/08/09 11:21:20;;;;;;;1.70;0.80;;;21.70;59.00;;;;;;6268750;28;20163;-69
2023/08/09 11:24:24;;;;;;;1.45;0.68;;;21.70;59.00;;;;;;6268987;28;20029;-69
2023/08/09 11:27:24;;;;;;;0.82;0.60;;;21.70;59.00;;;;;;6268893;28;20048;-69
2023/08/09 11:30:28;;;;;;;2.33;0.75;;;21.70;59.00;;;;;;6268755;28;20059;-69
2023/08/09 11:33:29;;;;;;;0.60;0.50;;;21.70;59.00;;;;;;6268497;28;20460;-69
2023/08/09 11:36:30;;;;;;;1.52;0.88;;;21.70;59.70;;;;;;6268710;28;20041;-69
2023/08/09 11:39:30;;;;;;;1.13;0.60;;;21.70;59.00;;;;;;6250636;28;20044;-69
2023/08/09 11:42:31;;;;;;;2.08;0.63;;;21.70;59.00;;;;;;6260125;28;20060;-70
2023/08/09 11:45:42;;;;;;;1.75;0.70;;;21.70;59.00;;;;;;6268361;28;20177;-69
2023/08/09 11:48:43;;;;;;;0.55;0.35;;;21.70;59.00;;;;;;6267547;28;20037;-69
2023/08/09 11:51:43;;;;;;;1.10;0.60;;;21.70;59.10;;;;;;6268147;28;20037;-69
2023/08/09 11:54:45;;;;;;;1.30;0.50;;;21.70;59.10;;;;;;6254517;28;20029;-69
2023/08/09 11:57:45;;;;;;;1.38;0.60;;;21.70;59.10;;;;;;6261684;28;20018;-70
2023/08/09 12:00:46;;;;;;;0.63;0.40;;;21.70;59.10;;;;;;6243769;28;20428;-69
2023/08/09 12:03:52;;;;;;;0.95;0.60;;;21.70;59.10;;;;;;6243988;28;20068;-69
2023/08/09 12:06:54;;;;;;;0.70;0.47;;;21.70;59.20;;;;;;6250470;28;20037;-69
2023/08/09 12:09:58;;;;;;;0.80;0.50;;;21.70;59.20;;;;;;6247777;28;20060;-69
2023/08/09 12:12:59;;;;;;;0.70;0.52;;;21.70;59.20;;;;;;6257678;28;20029;-69
2023/08/09 12:16:06;;;;;;;1.88;0.70;;;21.70;59.20;;;;;;6264955;28;20475;-69
2023/08/09 12:19:06;;;;;;;1.90;0.65;;;21.70;59.20;;;;;;6267186;28;20447;-70
2023/08/09 12:22:08;;;;;;;1.25;0.80;;;21.70;59.30;;;;;;6270846;28;20036;-69
2023/08/09 12:25:10;;;;;;;1.77;0.77;;;21.70;59.30;;;;;;6271924;28;20056;-69
2023/08/09 12:28:10;;;;;;;1.73;0.70;;;21.70;59.40;;;;;;6272626;28;20383;-69
2023/08/09 12:31:11;;;;;;;1.23;0.95;;;21.70;59.40;;;;;;6267122;28;20037;-69
2023/08/09 12:34:12;;;;;;;1.58;0.70;;;21.70;59.30;;;;;;6263439;28;20076;-69
2023/08/09 12:37:13;;;;;;;1.63;0.90;;;21.70;59.40;;;;;;6266272;28;20029;-70
2023/08/09 12:40:15;;;;;;;1.77;0.73;;;21.70;59.20;;;;;;6271466;28;20036;-69
2023/08/09 12:43:15;;;;;;;1.25;0.80;;;21.70;59.20;;;;;;6272092;28;20021;-70
2023/08/09 12:46:18;;;;;;;1.58;0.90;;;21.70;59.20;;;;;;6266388;28;20036;-70
2023/08/09 12:49:19;;;;;;;1.48;0.63;;;21.70;59.20;;;;;;6245609;28;20072;-70
2023/08/09 12:52:20;;;;;;;0.98;0.80;;;21.70;59.20;;;;;;6257386;28;20100;-70
2023/08/09 12:55:20;;;;;;;1.17;0.88;;;21.70;59.20;;;;;;6263098;28;20036;-70
2023/08/09 12:58:21;;;;;;;1.30;0.90;;;21.70;59.20;;;;;;6272012;28;20370;-70
2023/08/09 13:01:22;;;;;;;2.25;1.00;;;21.70;59.20;;;;;;6271760;28;20029;-68
2023/08/09 13:04:23;;;;;;;1.42;1.10;;;21.70;59.20;;;;;;6253547;28;20041;-68
2023/08/09 13:07:25;;;;;;;1.35;1.00;;;21.70;59.20;;;;;;6271855;28;20029;-67
2023/08/09 13:10:26;;;;;;;2.05;1.15;;;21.70;59.20;;;;;;6271035;28;20040;-68
2023/08/09 13:13:27;;;;;;;1.00;0.80;;;21.70;59.80;;;;;;6253774;28;20529;-68
2023/08/09 13:16:29;;;;;;;1.15;0.90;;;21.70;59.20;;;;;;6254733;28;20070;-72
2023/08/09 13:19:34;;;;;;;2.08;1.13;;;21.70;59.20;;;;;;6254638;28;20039;-74
2023/08/09 13:22:35;;;;;;;1.33;1.00;;;21.70;59.20;;;;;;6271434;28;20086;-70
2023/08/09 13:25:37;;;;;;;2.63;1.08;;;21.70;59.20;;;;;;6270074;28;20104;-72
2023/08/09 13:28:37;;;;;;;1.90;0.98;;;21.70;59.20;;;;;;6271165;28;20037;-70
2023/08/09 13:31:38;;;;;;;1.30;0.80;;;21.70;59.20;;;;;;6271240;28;20036;-70
2023/08/09 13:34:39;;;;;;;2.00;1.00;;;21.70;59.20;;;;;;6253150;28;20029;-70
2023/08/09 13:37:39;;;;;;;1.25;0.93;;;21.70;59.10;;;;;;6271200;28;20029;-70
2023/08/09 13:40:40;;;;;;;2.25;1.10;;;21.70;59.10;;;;;;6270470;28;20378;-70
2023/08/09 13:43:41;;;;;;;1.45;0.98;;;21.70;59.10;;;;;;6271182;28;20044;-70
2023/08/09 13:46:41;;;;;;;2.30;1.17;;;21.70;59.10;;;;;;6270347;28;20025;-71
2023/08/09 13:49:43;;;;;;;1.70;0.90;;;21.70;59.10;;;;;;6269672;28;20037;-70
2023/08/09 13:52:45;;;;;;;1.33;0.90;;;21.70;59.40;;;;;;6269938;28;20037;-70
2023/08/09 13:55:46;;;;;;;1.23;0.73;;;21.70;59.10;;;;;;6252725;28;20035;-70
2023/08/09 13:58:46;;;;;;;1.33;0.80;;;21.70;59.10;;;;;;6270299;28;20679;-70
2023/08/09 14:01:48;;;;;;;1.65;0.90;;;21.70;59.10;;;;;;6270277;28;20033;-70
2023/08/09 14:04:49;;;;;;;1.77;0.70;;;21.70;59.20;;;;;;6251991;28;20041;-70
2023/08/09 14:07:50;;;;;;;1.23;0.80;;;21.70;59.20;;;;;;6252887;28;20040;-69
2023/08/09 14:10:51;;;;;;;1.85;0.80;;;21.70;59.70;;;;;;6269544;28;20556;-70
2023/08/09 14:13:51;;;;;;;1.65;0.80;;;21.80;59.20;;;;;;6270473;28;20035;-71
2023/08/09 14:16:52;;;;;;;6.57;1.17;;;21.70;59.90;;;;;;6269516;28;20029;-70
2023/08/09 14:19:54;;;;;;;4.78;0.98;;;21.70;59.20;;;;;;6270046;28;20029;-70
2023/08/09 14:22:55;;;;;;;4.72;0.77;;;21.80;59.30;;;;;;6269658;28;20025;-70
2023/08/09 14:25:55;;;;;;;1.38;0.75;;;21.80;59.10;;;;;;6269742;28;20057;-69
2023/08/09 14:28:56;;;;;;;0.88;0.68;;;21.80;59.20;;;;;;6270084;28;20064;-70
2023/08/09 14:31:57;;;;;;;4.05;0.70;;;21.70;59.00;;;;;;6269582;28;20460;-70
2023/08/09 14:34:58;;;;;;;2.45;1.15;;;21.70;59.20;;;;;;6269444;28;20029;-70
2023/08/09 14:37:58;;;;;;;1.58;0.80;;;21.70;59.20;;;;;;6251728;28;20395;-70
2023/08/09 14:40:59;;;;;;;2.35;0.73;;;21.70;59.20;;;;;;6243161;28;20030;-69
2023/08/09 14:44:00;;;;;;;1.42;0.80;;;21.70;59.20;;;;;;6245205;28;20068;-70
2023/08/09 14:47:00;;;;;;;1.50;0.75;;;21.70;59.20;;;;;;6264349;28;20551;-70
2023/08/09 14:50:01;;;;;;;1.02;0.80;;;21.70;59.20;;;;;;6269286;28;20061;-70
2023/08/09 14:53:02;;;;;;;1.55;0.70;;;21.70;59.20;;;;;;6268254;28;20126;-68
2023/08/09 14:56:03;;;;;;;3.05;0.90;;;21.70;59.20;;;;;;6269178;28;20033;-71
2023/08/09 14:59:04;;;;;;;1.45;0.82;;;21.70;59.20;;;;;;6269283;28;20403;-70
2023/08/09 15:02:07;;;;;;;2.13;0.52;;;21.70;59.20;;;;;;6269134;28;20047;-70
2023/08/09 15:05:08;;;;;;;1.48;0.90;;;21.70;59.20;;;;;;6242522;28;20099;-70
2023/08/09 15:08:09;;;;;;;0.98;0.68;;;21.70;59.20;;;;;;6269340;28;20065;-69
2023/08/09 15:11:09;;;;;;;1.40;0.68;;;21.70;59.20;;;;;;6259719;28;20037;-70
2023/08/09 15:14:10;;;;;;;0.93;0.70;;;21.70;59.20;;;;;;6250916;28;20072;-70
2023/08/09 15:17:11;;;;;;;1.73;0.88;;;21.70;59.20;;;;;;6250850;28;20083;-70
2023/08/09 15:20:13;;;;;;;1.15;0.70;;;21.70;59.20;;;;;;6250811;28;20397;-70
2023/08/09 15:23:14;;;;;;;0.73;0.70;;;21.70;59.20;;;;;;6250094;28;20043;-70
2023/08/09 15:26:14;;;;;;;2.15;0.50;;;21.70;59.20;;;;;;6262023;28;20033;-71
2023/08/09 15:29:15;;;;;;;1.30;0.70;;;21.70;59.20;;;;;;6252614;28;20398;-70
2023/08/09 15:32:16;;;;;;;1.40;0.77;;;21.70;59.20;;;;;;6251833;28;20106;-70
2023/08/09 15:35:18;;;;;;;1.40;0.60;;;21.70;59.20;;;;;;6250938;28;20116;-70
2023/08/09 15:38:19;;;;;;;1.48;0.70;;;21.70;59.20;;;;;;6234337;28;20036;-70
2023/08/09 15:41:20;;;;;;;0.75;0.63;;;21.70;59.20;;;;;;6268313;28;20025;-70
2023/08/09 15:44:20;;;;;;;4.68;0.90;;;21.70;59.20;;;;;;6265798;28;20043;-71
2023/08/09 15:47:21;;;;;;;0.88;0.60;;;21.70;59.20;;;;;;6255550;28;20029;-70